Time;durP1;ratioP1;P1;durP2;ratioP2;P2;SDS_P1;SDS_P2;PMS_P1;PMS_P2;Temp;Humidity;BMP_temperature;BMP_pressure;BME280_temperature;BME280_humidity;BME280_pressure;Samples;Min_cycle;Max_cycle;Signal;HPM_P1;HPM_P2
2023/03/01 00:00:41;;;;;;;17.00;12.85;;;2.10;71.00;;;;;;4968558;28;20228;-72
2023/03/01 00:03:28;;;;;;;17.48;11.73;;;2.10;70.70;;;;;;4972742;28;20692;-71
2023/03/01 00:06:14;;;;;;;19.17;12.75;;;2.10;71.20;;;;;;4970016;28;20585;-71
2023/03/01 00:09:00;;;;;;;16.17;12.40;;;2.20;70.70;;;;;;4971331;28;20212;-71
2023/03/01 00:11:46;;;;;;;19.95;12.13;;;2.10;71.10;;;;;;4964633;28;20311;-71
2023/03/01 00:14:31;;;;;;;16.15;12.32;;;2.10;71.60;;;;;;4971165;28;20209;-72
2023/03/01 00:17:17;;;;;;;16.85;13.48;;;2.00;71.60;;;;;;4968283;28;20245;-72
2023/03/01 00:20:07;;;;;;;17.77;13.48;;;2.00;71.40;;;;;;4966970;28;20217;-72
2023/03/01 00:22:53;;;;;;;18.15;12.52;;;2.00;71.70;;;;;;4965979;28;20761;-71
2023/03/01 00:25:42;;;;;;;20.00;12.90;;;2.00;72.10;;;;;;4966800;28;20682;-71
2023/03/01 00:28:28;;;;;;;18.83;12.65;;;2.10;72.00;;;;;;4970389;28;20211;-71
2023/03/01 00:31:16;;;;;;;19.30;13.63;;;2.00;72.10;;;;;;4961772;28;20321;-72
2023/03/01 00:34:04;;;;;;;18.88;12.50;;;2.10;71.20;;;;;;4967176;28;20753;-73
2023/03/01 00:36:51;;;;;;;19.65;13.25;;;2.10;71.40;;;;;;4968897;28;20291;-72
2023/03/01 00:39:36;;;;;;;19.30;14.57;;;2.10;71.70;;;;;;4966856;28;20213;-71
2023/03/01 00:42:22;;;;;;;21.67;14.52;;;2.10;71.80;;;;;;4971276;28;20221;-71
2023/03/01 00:45:09;;;;;;;20.70;13.27;;;2.00;71.90;;;;;;4969165;28;20205;-71
2023/03/01 00:47:55;;;;;;;17.80;14.70;;;2.00;71.90;;;;;;4967431;28;20226;-71
2023/03/01 00:50:40;;;;;;;19.70;15.10;;;2.00;72.20;;;;;;4968815;28;20342;-72
2023/03/01 00:53:27;;;;;;;17.77;12.48;;;2.00;71.90;;;;;;4968308;28;20587;-71
2023/03/01 00:56:15;;;;;;;23.67;14.20;;;1.90;72.80;;;;;;4968516;28;20241;-72
2023/03/01 00:59:00;;;;;;;22.42;13.95;;;1.80;73.40;;;;;;4969352;28;20840;-71
2023/03/01 01:01:46;;;;;;;21.27;14.63;;;1.70;74.10;;;;;;4967501;28;20208;-72
2023/03/01 01:04:31;;;;;;;21.50;13.85;;;1.70;74.70;;;;;;4967810;28;20286;-72
2023/03/01 01:07:17;;;;;;;19.90;13.65;;;1.60;75.10;;;;;;4968747;28;20324;-72
2023/03/01 01:10:05;;;;;;;20.27;15.00;;;1.50;75.70;;;;;;4962843;28;20340;-72
2023/03/01 01:12:50;;;;;;;17.90;13.90;;;1.40;76.40;;;;;;4966471;28;20287;-71
2023/03/01 01:15:37;;;;;;;20.15;14.00;;;1.60;76.30;;;;;;4968963;28;20216;-71
2023/03/01 01:18:23;;;;;;;20.77;14.40;;;1.60;75.90;;;;;;4964606;28;20276;-70
2023/03/01 01:21:10;;;;;;;19.95;13.23;;;1.60;75.40;;;;;;4963672;28;20291;-71
2023/03/01 01:23:56;;;;;;;16.90;14.05;;;1.50;76.50;;;;;;4965961;28;20211;-72
2023/03/01 01:26:44;;;;;;;18.98;14.48;;;1.40;76.90;;;;;;4965125;28;20232;-72
2023/03/01 01:29:30;;;;;;;17.98;13.68;;;1.30;77.50;;;;;;4967812;28;20208;-72
2023/03/01 01:32:15;;;;;;;18.58;14.95;;;1.20;77.80;;;;;;4969340;28;20292;-71
2023/03/01 01:35:01;;;;;;;21.52;15.82;;;1.20;78.10;;;;;;4966115;28;20200;-71
2023/03/01 01:37:46;;;;;;;19.67;14.52;;;1.30;78.40;;;;;;4967274;28;20435;-72
2023/03/01 01:40:32;;;;;;;24.42;16.73;;;1.20;78.90;;;;;;4967283;28;20582;-72
2023/03/01 01:43:23;;;;;;;19.27;15.65;;;1.10;80.00;;;;;;4966446;28;20323;-72
2023/03/01 01:46:21;;;;;;;19.10;14.65;;;1.10;81.30;;;;;;4966458;28;20241;-71
2023/03/01 01:49:18;;;;;;;20.80;15.40;;;1.10;81.40;;;;;;4966152;28;20207;-71
2023/03/01 01:52:10;;;;;;;23.92;16.67;;;1.10;81.80;;;;;;4971110;28;20209;-71
2023/03/01 01:55:01;;;;;;;24.40;15.77;;;1.10;82.90;;;;;;4974468;28;20594;-71
2023/03/01 01:57:50;;;;;;;20.13;15.25;;;1.10;82.50;;;;;;4969252;28;20381;-71
2023/03/01 02:00:38;;;;;;;20.65;14.80;;;1.20;82.00;;;;;;4967193;28;20313;-72
2023/03/01 02:03:28;;;;;;;22.90;15.48;;;1.20;81.90;;;;;;4966838;28;20263;-71
2023/03/01 02:06:21;;;;;;;18.73;15.05;;;1.10;81.60;;;;;;4963429;28;20600;-72
2023/03/01 02:09:12;;;;;;;21.35;15.27;;;1.10;81.40;;;;;;4961930;28;21196;-71
2023/03/01 02:11:59;;;;;;;22.33;15.82;;;1.00;82.20;;;;;;4967613;28;20199;-71
2023/03/01 02:14:45;;;;;;;21.60;15.38;;;1.00;82.60;;;;;;4966181;28;20209;-72
2023/03/01 02:17:32;;;;;;;19.90;15.32;;;1.00;82.50;;;;;;4968731;28;20230;-71
2023/03/01 02:20:24;;;;;;;22.65;14.80;;;0.90;83.10;;;;;;4967948;28;20226;-72
2023/03/01 02:23:09;;;;;;;19.95;15.20;;;0.90;84.80;;;;;;4963807;28;20272;-71
2023/03/01 02:26:01;;;;;;;18.75;15.38;;;0.80;85.00;;;;;;4965039;28;20201;-71
2023/03/01 02:28:48;;;;;;;19.45;15.60;;;0.70;86.00;;;;;;4966629;28;20236;-71
2023/03/01 02:31:44;;;;;;;22.50;16.30;;;0.60;87.70;;;;;;4965133;28;20340;-72
2023/03/01 02:34:32;;;;;;;23.48;17.90;;;0.60;90.10;;;;;;4967908;28;20209;-71
2023/03/01 02:37:20;;;;;;;24.42;17.38;;;0.50;90.30;;;;;;4967241;28;20263;-71
2023/03/01 02:40:12;;;;;;;23.98;16.90;;;0.60;90.50;;;;;;4962725;28;20264;-72
2023/03/01 02:42:59;;;;;;;21.92;16.10;;;0.70;90.60;;;;;;4967440;28;20212;-71
2023/03/01 02:45:50;;;;;;;23.20;16.10;;;0.80;90.20;;;;;;4969198;28;20212;-71
2023/03/01 02:48:45;;;;;;;22.85;16.77;;;0.80;90.10;;;;;;4962294;28;20245;-71
2023/03/01 02:51:47;;;;;;;22.17;15.95;;;0.90;89.70;;;;;;4967627;28;20211;-71
2023/03/01 02:54:37;;;;;;;22.88;16.55;;;0.90;89.50;;;;;;4969301;28;20679;-72
2023/03/01 02:57:24;;;;;;;22.83;17.40;;;0.80;90.10;;;;;;4966676;28;20237;-71
2023/03/01 03:00:18;;;;;;;24.45;17.23;;;0.80;90.00;;;;;;4965138;28;20207;-71
2023/03/01 03:03:06;;;;;;;23.17;17.05;;;0.80;90.60;;;;;;4968523;28;20213;-71
2023/03/01 03:05:51;;;;;;;24.50;17.70;;;1.00;90.30;;;;;;4967784;28;20204;-71
2023/03/01 03:08:37;;;;;;;25.13;18.30;;;1.10;89.80;;;;;;4966805;28;20213;-72
2023/03/01 03:11:23;;;;;;;23.50;17.23;;;1.20;88.60;;;;;;4966519;28;20227;-71
2023/03/01 03:14:12;;;;;;;25.08;18.08;;;1.20;87.60;;;;;;4967754;28;20266;-71
2023/03/01 03:16:57;;;;;;;29.13;18.67;;;1.30;87.60;;;;;;4967591;28;20237;-71
2023/03/01 03:19:45;;;;;;;25.42;17.75;;;1.40;86.40;;;;;;4969659;28;20676;-71
2023/03/01 03:22:31;;;;;;;24.15;17.42;;;1.40;86.00;;;;;;4968314;28;20220;-71
2023/03/01 03:25:17;;;;;;;22.10;16.88;;;1.30;85.70;;;;;;4971565;28;20217;-71
2023/03/01 03:28:09;;;;;;;21.92;16.50;;;1.30;86.00;;;;;;4969590;28;20253;-71
2023/03/01 03:30:54;;;;;;;24.75;17.52;;;1.40;85.80;;;;;;4971822;28;20261;-71
2023/03/01 03:33:40;;;;;;;24.02;16.33;;;1.40;85.40;;;;;;4969854;28;20252;-71
2023/03/01 03:36:27;;;;;;;22.02;16.73;;;1.50;84.60;;;;;;4969670;28;20347;-71
2023/03/01 03:39:13;;;;;;;21.17;16.08;;;1.60;84.30;;;;;;4968008;28;20205;-72
2023/03/01 03:41:58;;;;;;;23.92;16.45;;;1.50;84.10;;;;;;4972175;28;20205;-71
2023/03/01 03:44:44;;;;;;;26.08;17.85;;;1.60;83.60;;;;;;4967149;28;20195;-72
2023/03/01 03:47:30;;;;;;;23.48;15.82;;;1.60;83.60;;;;;;4965308;28;20379;-71
2023/03/01 03:50:17;;;;;;;25.63;17.00;;;1.50;83.50;;;;;;4971738;28;20221;-72
2023/03/01 03:53:06;;;;;;;23.63;17.42;;;1.50;83.50;;;;;;4966148;28;20677;-71
2023/03/01 03:55:53;;;;;;;21.27;15.25;;;1.50;83.50;;;;;;4970751;28;20209;-71
2023/03/01 03:58:38;;;;;;;24.33;18.08;;;1.60;83.60;;;;;;4968473;28;20212;-71
2023/03/01 04:01:24;;;;;;;23.35;16.30;;;1.50;83.50;;;;;;4969250;28;20225;-72
2023/03/01 04:04:10;;;;;;;24.58;17.35;;;1.60;83.80;;;;;;4969902;28;20572;-72
2023/03/01 04:06:55;;;;;;;25.83;17.50;;;1.40;83.90;;;;;;4969447;28;20221;-71
2023/03/01 04:09:43;;;;;;;27.60;17.20;;;1.40;84.30;;;;;;4971785;28;20209;-71
2023/03/01 04:12:29;;;;;;;27.92;17.50;;;1.30;85.00;;;;;;4968108;28;20211;-71
2023/03/01 04:15:14;;;;;;;21.33;15.50;;;1.30;85.50;;;;;;4972446;28;20213;-71
2023/03/01 04:18:01;;;;;;;25.98;17.73;;;1.30;85.80;;;;;;4968756;28;20639;-71
2023/03/01 04:20:47;;;;;;;22.48;16.52;;;1.30;85.70;;;;;;4970219;28;20694;-71
2023/03/01 04:23:33;;;;;;;24.88;18.27;;;1.30;85.70;;;;;;4972157;28;20213;-71
2023/03/01 04:26:20;;;;;;;23.80;17.13;;;1.30;85.50;;;;;;4970322;28;20298;-71
2023/03/01 04:29:06;;;;;;;25.27;17.95;;;1.30;85.50;;;;;;4971287;28;20201;-71
2023/03/01 04:31:52;;;;;;;22.60;16.75;;;1.30;85.30;;;;;;4974853;28;20304;-71
2023/03/01 04:34:38;;;;;;;24.67;18.20;;;1.30;85.10;;;;;;4968762;28;20209;-71
2023/03/01 04:37:23;;;;;;;23.92;16.50;;;1.30;85.50;;;;;;4967999;28;20236;-72
2023/03/01 04:40:15;;;;;;;30.00;17.80;;;1.30;85.20;;;;;;4971054;28;20213;-72
2023/03/01 04:43:03;;;;;;;27.40;18.80;;;1.40;85.30;;;;;;4971231;28;20332;-71
2023/03/01 04:45:49;;;;;;;31.77;16.90;;;1.50;84.50;;;;;;4972019;28;20285;-71
2023/03/01 04:48:34;;;;;;;25.88;17.65;;;1.60;84.00;;;;;;4966061;28;20224;-71
2023/03/01 04:51:20;;;;;;;25.55;17.65;;;1.60;83.90;;;;;;4966930;28;20202;-71
2023/03/01 04:54:08;;;;;;;31.73;18.75;;;1.70;83.50;;;;;;4971094;28;20209;-71
2023/03/01 04:56:55;;;;;;;23.25;17.05;;;1.60;83.00;;;;;;4961127;28;20360;-71
2023/03/01 04:59:42;;;;;;;25.52;17.60;;;1.60;83.50;;;;;;4969213;28;20579;-71
2023/03/01 05:02:27;;;;;;;22.63;17.70;;;1.60;83.60;;;;;;4971616;28;20540;-71
2023/03/01 05:05:13;;;;;;;25.90;18.13;;;1.60;83.60;;;;;;4967787;28;20695;-71
2023/03/01 05:08:00;;;;;;;28.55;19.27;;;1.50;83.50;;;;;;4966354;28;20236;-71
2023/03/01 05:10:47;;;;;;;27.95;18.20;;;1.50;83.50;;;;;;4971260;28;20205;-72
2023/03/01 05:13:33;;;;;;;27.35;18.30;;;1.50;83.50;;;;;;4964478;28;20213;-71
2023/03/01 05:16:20;;;;;;;28.75;18.85;;;1.60;83.60;;;;;;4963086;28;20227;-71
2023/03/01 05:19:11;;;;;;;26.95;19.33;;;1.60;83.40;;;;;;4971445;28;20241;-71
2023/03/01 05:22:03;;;;;;;27.40;17.70;;;1.60;83.60;;;;;;4967723;28;20626;-72
2023/03/01 05:24:49;;;;;;;26.73;17.35;;;1.60;83.40;;;;;;4970007;28;20204;-71
2023/03/01 05:27:35;;;;;;;27.27;18.65;;;1.60;82.80;;;;;;4964388;28;20240;-71
2023/03/01 05:30:21;;;;;;;24.38;17.67;;;1.50;82.90;;;;;;4970939;28;20209;-71
2023/03/01 05:33:13;;;;;;;25.90;19.02;;;1.50;83.50;;;;;;4968530;28;20201;-71
2023/03/01 05:36:01;;;;;;;30.23;19.90;;;1.60;82.90;;;;;;4965937;28;20213;-71
2023/03/01 05:38:47;;;;;;;23.50;18.00;;;1.60;83.30;;;;;;4969090;28;20237;-71
2023/03/01 05:41:32;;;;;;;26.13;17.95;;;1.60;82.90;;;;;;4966683;28;20209;-71
2023/03/01 05:44:18;;;;;;;27.58;18.05;;;1.60;82.90;;;;;;4969137;28;20293;-70
2023/03/01 05:47:03;;;;;;;30.15;18.40;;;1.60;82.80;;;;;;4964578;28;20236;-71
2023/03/01 05:49:51;;;;;;;24.52;17.17;;;1.50;83.50;;;;;;4968764;28;20256;-72
2023/03/01 05:52:36;;;;;;;25.85;18.23;;;1.60;82.80;;;;;;4971122;28;20699;-71
2023/03/01 05:55:22;;;;;;;29.42;19.23;;;1.60;82.70;;;;;;4969545;28;20221;-71
2023/03/01 05:58:11;;;;;;;30.40;17.70;;;1.50;82.60;;;;;;4969227;28;22428;-71
2023/03/01 06:00:57;;;;;;;27.83;18.20;;;1.60;82.00;;;;;;4966827;28;20212;-71
2023/03/01 06:03:42;;;;;;;26.45;18.27;;;1.70;82.00;;;;;;4963186;28;20207;-71
2023/03/01 06:06:30;;;;;;;27.40;18.67;;;1.70;81.80;;;;;;4966361;28;20237;-71
2023/03/01 06:09:16;;;;;;;23.35;17.45;;;1.70;81.40;;;;;;4969834;28;20668;-71
2023/03/01 06:12:01;;;;;;;29.85;19.10;;;1.60;81.50;;;;;;4968231;28;20217;-71
2023/03/01 06:14:48;;;;;;;25.13;18.45;;;1.70;81.40;;;;;;4968940;28;20209;-71
2023/03/01 06:17:37;;;;;;;29.17;18.83;;;1.70;81.10;;;;;;4968351;28;20792;-71
2023/03/01 06:20:25;;;;;;;27.35;17.27;;;1.70;81.50;;;;;;4969458;28;20221;-71
2023/03/01 06:23:12;;;;;;;27.70;19.83;;;1.70;80.80;;;;;;4968823;28;20292;-71
2023/03/01 06:25:57;;;;;;;28.92;18.98;;;1.70;81.40;;;;;;4965207;28;20291;-71
2023/03/01 06:28:45;;;;;;;27.23;18.63;;;1.70;81.50;;;;;;4967662;28;20428;-71
2023/03/01 06:31:31;;;;;;;33.28;19.08;;;1.80;80.70;;;;;;4968914;28;20721;-71
2023/03/01 06:34:16;;;;;;;29.33;20.35;;;1.80;81.00;;;;;;4967608;28;20220;-71
2023/03/01 06:37:05;;;;;;;24.42;17.75;;;1.80;80.90;;;;;;4966178;28;20592;-71
2023/03/01 06:39:51;;;;;;;26.27;18.50;;;1.70;80.40;;;;;;4966077;28;20200;-72
2023/03/01 06:42:37;;;;;;;31.38;19.30;;;1.80;80.40;;;;;;4963827;28;20209;-71
2023/03/01 06:45:23;;;;;;;29.95;20.25;;;1.90;80.50;;;;;;4964594;28;22109;-71
2023/03/01 06:48:09;;;;;;;29.38;18.73;;;1.90;80.00;;;;;;4966827;28;20264;-71
2023/03/01 06:50:58;;;;;;;29.40;19.13;;;1.90;79.50;;;;;;4967340;28;20208;-71
2023/03/01 06:53:44;;;;;;;25.60;17.95;;;1.90;80.10;;;;;;4971096;28;20350;-71
2023/03/01 06:56:31;;;;;;;32.50;18.45;;;1.90;79.90;;;;;;4964683;28;20351;-71
2023/03/01 06:59:17;;;;;;;27.88;18.67;;;2.00;79.70;;;;;;4973564;28;20199;-71
2023/03/01 07:02:03;;;;;;;29.65;19.40;;;2.10;79.00;;;;;;4970960;28;20598;-71
2023/03/01 07:04:50;;;;;;;27.77;17.90;;;2.20;78.30;;;;;;4969489;28;20542;-71
2023/03/01 07:07:36;;;;;;;25.17;17.35;;;2.20;78.10;;;;;;4972192;28;20222;-70
2023/03/01 07:10:22;;;;;;;27.27;18.95;;;2.20;77.70;;;;;;4971372;28;20208;-72
2023/03/01 07:13:09;;;;;;;23.25;18.35;;;2.30;76.80;;;;;;4969658;28;20688;-71
2023/03/01 07:15:55;;;;;;;26.23;19.35;;;2.40;75.80;;;;;;4965227;28;20680;-72
2023/03/01 07:18:41;;;;;;;28.25;18.40;;;2.40;76.40;;;;;;4967074;28;20232;-72
2023/03/01 07:21:26;;;;;;;29.02;18.85;;;2.40;77.00;;;;;;4971701;28;20327;-71
2023/03/01 07:24:13;;;;;;;25.40;17.80;;;2.40;76.80;;;;;;4971770;28;20232;-71
2023/03/01 07:26:58;;;;;;;29.70;19.77;;;2.40;76.80;;;;;;4970849;28;20255;-71
2023/03/01 07:29:45;;;;;;;32.58;18.40;;;2.40;75.70;;;;;;4970791;28;20213;-71
2023/03/01 07:32:31;;;;;;;27.50;18.45;;;2.50;75.90;;;;;;4971157;28;20687;-71
2023/03/01 07:35:17;;;;;;;32.35;20.25;;;2.60;76.50;;;;;;4964902;28;20225;-71
2023/03/01 07:38:02;;;;;;;31.67;21.35;;;2.60;76.80;;;;;;4970476;28;20229;-71
2023/03/01 07:40:48;;;;;;;29.77;18.45;;;2.60;76.10;;;;;;4972222;28;20288;-72
2023/03/01 07:43:33;;;;;;;28.17;18.90;;;2.70;75.40;;;;;;4969169;28;20272;-71
2023/03/01 07:46:20;;;;;;;26.35;17.95;;;2.80;74.30;;;;;;4967500;28;20298;-71
2023/03/01 07:49:06;;;;;;;25.80;18.73;;;2.80;74.70;;;;;;4971814;28;20695;-73
2023/03/01 07:51:52;;;;;;;30.45;20.17;;;2.90;74.00;;;;;;4971093;28;20727;-72
2023/03/01 07:54:37;;;;;;;31.17;18.77;;;2.90;73.30;;;;;;4966398;28;20213;-73
2023/03/01 07:57:23;;;;;;;31.73;18.55;;;3.00;72.80;;;;;;4972122;28;20242;-73
2023/03/01 08:00:11;;;;;;;26.73;18.35;;;3.00;72.60;;;;;;4969313;28;20349;-73
2023/03/01 08:03:01;;;;;;;28.25;19.13;;;3.10;71.50;;;;;;4970626;28;20208;-72
2023/03/01 08:05:47;;;;;;;28.63;19.83;;;3.10;72.10;;;;;;4968763;28;20260;-73
2023/03/01 08:08:33;;;;;;;29.83;18.33;;;3.30;70.60;;;;;;4974292;28;20432;-73
2023/03/01 08:11:18;;;;;;;29.38;18.25;;;3.30;69.50;;;;;;4969735;28;20698;-71
2023/03/01 08:14:04;;;;;;;30.48;18.50;;;3.30;68.70;;;;;;4965851;28;20688;-71
2023/03/01 08:16:50;;;;;;;32.75;18.33;;;3.30;69.90;;;;;;4971303;28;20733;-71
2023/03/01 08:19:37;;;;;;;25.05;18.45;;;3.40;69.20;;;;;;4967504;28;20234;-72
2023/03/01 08:22:23;;;;;;;28.67;18.83;;;3.40;69.00;;;;;;4970979;28;20216;-72
2023/03/01 08:25:10;;;;;;;24.08;17.65;;;3.50;68.20;;;;;;4960585;28;20220;-72
2023/03/01 08:27:55;;;;;;;25.02;16.52;;;3.60;67.40;;;;;;4968581;28;20224;-73
2023/03/01 08:30:41;;;;;;;25.73;17.48;;;3.60;68.10;;;;;;4971754;28;20208;-72
2023/03/01 08:33:26;;;;;;;27.15;17.88;;;3.70;67.50;;;;;;4973398;28;20209;-74
2023/03/01 08:36:14;;;;;;;28.40;19.00;;;3.80;66.20;;;;;;4970653;28;20597;-71
2023/03/01 08:39:01;;;;;;;26.75;17.73;;;3.80;66.20;;;;;;4970041;28;20237;-73
2023/03/01 08:41:47;;;;;;;25.85;17.80;;;3.80;65.30;;;;;;4968047;28;20674;-73
2023/03/01 08:44:33;;;;;;;28.30;18.20;;;3.80;64.40;;;;;;4969810;28;20678;-74
2023/03/01 08:47:19;;;;;;;26.10;17.60;;;3.90;64.60;;;;;;4965586;28;20237;-74
2023/03/01 08:50:06;;;;;;;27.20;18.30;;;3.90;63.90;;;;;;4970898;28;20201;-73
2023/03/01 08:52:53;;;;;;;27.48;17.90;;;3.90;63.70;;;;;;4971687;28;20845;-73
2023/03/01 08:55:38;;;;;;;24.42;17.30;;;4.00;63.70;;;;;;4967986;28;20207;-73
2023/03/01 08:58:24;;;;;;;29.55;18.30;;;4.10;62.90;;;;;;4972630;28;20248;-73
2023/03/01 09:01:11;;;;;;;24.40;17.70;;;4.20;63.00;;;;;;4972249;28;20324;-72
2023/03/01 09:03:57;;;;;;;24.20;17.10;;;4.10;61.20;;;;;;4973030;28;20348;-73
2023/03/01 09:06:42;;;;;;;28.13;19.25;;;4.20;62.10;;;;;;4965800;28;20770;-72
2023/03/01 09:09:30;;;;;;;31.65;19.92;;;4.30;61.80;;;;;;4967829;28;20261;-72
2023/03/01 09:12:17;;;;;;;26.48;18.73;;;4.40;63.10;;;;;;4972171;28;20206;-73
2023/03/01 09:15:02;;;;;;;27.55;18.80;;;4.50;61.10;;;;;;4970693;28;20259;-72
2023/03/01 09:17:48;;;;;;;28.95;19.13;;;4.50;59.80;;;;;;4969844;28;20275;-73
2023/03/01 09:20:34;;;;;;;31.35;20.27;;;4.60;60.00;;;;;;4973003;28;20204;-73
2023/03/01 09:23:19;;;;;;;31.38;19.65;;;4.70;60.90;;;;;;4972815;28;20212;-73
2023/03/01 09:26:08;;;;;;;30.10;20.73;;;4.90;60.10;;;;;;4965543;28;20210;-72
2023/03/01 09:28:56;;;;;;;31.00;20.25;;;5.00;58.40;;;;;;4967997;28;20209;-73
2023/03/01 09:31:42;;;;;;;30.63;20.10;;;5.10;54.90;;;;;;4965326;28;20209;-73
2023/03/01 09:34:28;;;;;;;27.70;17.00;;;5.20;55.00;;;;;;4972192;28;20675;-73
2023/03/01 09:37:14;;;;;;;25.10;18.35;;;5.30;52.30;;;;;;4967356;28;20233;-73
2023/03/01 09:40:00;;;;;;;22.33;17.48;;;5.50;53.90;;;;;;4970076;28;20652;-74
2023/03/01 09:42:57;;;;;;;28.25;18.02;;;5.60;52.70;;;;;;4961792;28;20213;-74
2023/03/01 09:45:47;;;;;;;27.03;17.87;;;5.80;52.80;;;;;;4968506;28;20306;-74
2023/03/01 09:48:42;;;;;;;25.55;18.05;;;5.80;49.40;;;;;;4968986;28;20433;-74
2023/03/01 09:51:32;;;;;;;24.63;18.00;;;5.90;49.80;;;;;;4972405;28;20302;-74
2023/03/01 09:54:17;;;;;;;22.83;15.93;;;6.00;47.10;;;;;;4970810;28;20436;-73
2023/03/01 09:57:20;;;;;;;26.88;17.92;;;6.00;46.60;;;;;;4964021;28;20475;-74
2023/03/01 10:00:21;;;;;;;28.03;18.63;;;6.20;46.70;;;;;;4971820;28;20232;-72
2023/03/01 10:03:15;;;;;;;28.85;18.13;;;6.20;44.70;;;;;;4969648;28;20428;-73
2023/03/01 10:06:07;;;;;;;24.33;16.67;;;6.30;45.20;;;;;;4962101;28;20576;-74
2023/03/01 10:08:57;;;;;;;28.53;17.27;;;6.30;45.10;;;;;;4966929;28;20421;-73
2023/03/01 10:11:46;;;;;;;27.13;17.70;;;6.40;44.50;;;;;;4969424;28;21071;-74
2023/03/01 10:14:36;;;;;;;27.90;18.27;;;6.50;44.00;;;;;;4966742;28;20452;-73
2023/03/01 10:17:34;;;;;;;23.20;16.23;;;6.60;43.50;;;;;;4968598;28;20520;-74
2023/03/01 10:20:22;;;;;;;30.10;18.83;;;6.70;43.10;;;;;;4971572;28;20507;-74
2023/03/01 10:23:09;;;;;;;26.03;17.10;;;6.80;42.40;;;;;;4972161;28;20514;-74
2023/03/01 10:26:10;;;;;;;26.47;18.20;;;7.00;42.10;;;;;;4964449;28;20539;-73
2023/03/01 10:29:03;;;;;;;27.50;18.73;;;7.30;41.10;;;;;;4966746;28;20563;-73
2023/03/01 10:31:52;;;;;;;25.10;16.97;;;7.30;39.30;;;;;;4975623;28;20437;-73
2023/03/01 10:34:39;;;;;;;26.07;17.50;;;7.50;41.30;;;;;;4969357;28;20429;-74
2023/03/01 10:37:26;;;;;;;24.90;16.40;;;7.70;40.60;;;;;;4974635;28;20476;-74
2023/03/01 10:40:12;;;;;;;23.60;16.57;;;7.80;38.30;;;;;;4981627;28;20481;-74
2023/03/01 10:43:01;;;;;;;30.07;17.50;;;8.00;37.90;;;;;;4973841;28;20461;-73
2023/03/01 10:45:47;;;;;;;26.03;18.23;;;8.10;35.10;;;;;;4972541;28;20456;-74
2023/03/01 10:48:33;;;;;;;24.73;18.43;;;8.00;34.40;;;;;;4974216;28;20498;-74
2023/03/01 10:51:20;;;;;;;25.73;17.30;;;7.90;34.20;;;;;;4975479;28;20433;-74
2023/03/01 10:54:15;;;;;;;26.63;18.70;;;8.00;36.00;;;;;;4972241;28;20437;-70
2023/03/01 10:57:03;;;;;;;26.10;17.33;;;8.20;34.60;;;;;;4973622;28;21052;-73
2023/03/01 11:00:11;;;;;;;26.77;17.47;;;8.30;34.00;;;;;;4971360;28;20608;-74
2023/03/01 11:03:12;;;;;;;25.23;17.23;;;8.50;33.60;;;;;;4971309;28;20437;-74
2023/03/01 11:06:01;;;;;;;26.70;16.63;;;8.50;33.90;;;;;;4973184;28;20456;-73
2023/03/01 11:08:49;;;;;;;28.43;16.70;;;8.70;33.50;;;;;;4967607;28;20557;-71
2023/03/01 11:11:36;;;;;;;28.17;17.77;;;8.90;32.30;;;;;;4963457;28;20441;-72
2023/03/01 11:14:23;;;;;;;29.93;17.67;;;8.90;31.40;;;;;;4971349;28;20472;-73
2023/03/01 11:17:17;;;;;;;29.43;16.60;;;9.00;30.60;;;;;;4967512;28;21046;-73
2023/03/01 11:20:14;;;;;;;25.07;17.70;;;9.10;31.80;;;;;;4974675;28;20477;-74
2023/03/01 11:23:04;;;;;;;23.50;17.10;;;9.20;30.00;;;;;;4972055;28;20431;-73
2023/03/01 11:25:56;;;;;;;26.90;18.00;;;9.20;29.50;;;;;;4964841;28;20453;-73
2023/03/01 11:28:43;;;;;;;25.00;17.00;;;9.10;30.80;;;;;;4970806;28;20445;-74
2023/03/01 11:31:31;;;;;;;22.53;16.50;;;9.10;31.30;;;;;;4974774;28;20485;-73
2023/03/01 11:34:24;;;;;;;24.10;17.67;;;9.20;29.90;;;;;;4973372;28;20524;-73
2023/03/01 11:37:18;;;;;;;27.50;17.80;;;9.20;30.60;;;;;;4965527;28;20837;-74
2023/03/01 11:40:13;;;;;;;24.70;17.07;;;9.30;30.20;;;;;;4967051;28;20477;-75
2023/03/01 11:43:12;;;;;;;24.90;16.57;;;9.50;29.70;;;;;;4967376;28;20457;-72
2023/03/01 11:46:34;;;;;;;25.00;16.80;;;9.60;29.80;;;;;;4965917;28;20441;-73
2023/03/01 11:49:37;;;;;;;25.50;16.90;;;9.70;30.00;;;;;;4970800;28;20456;-73
2023/03/01 11:52:32;;;;;;;29.27;17.73;;;9.80;29.20;;;;;;4972075;28;20519;-73
2023/03/01 11:55:31;;;;;;;21.27;14.77;;;10.00;29.20;;;;;;4969463;28;20499;-74
2023/03/01 11:58:31;;;;;;;22.43;15.90;;;10.30;29.00;;;;;;4969266;28;20454;-74
2023/03/01 12:01:33;;;;;;;22.90;16.80;;;10.50;28.30;;;;;;4969758;28;20487;-75
2023/03/01 12:05:00;;;;;;;26.67;17.97;;;10.50;26.30;;;;;;4965066;28;20873;-71
2023/03/01 12:07:53;;;;;;;23.30;16.40;;;10.40;28.10;;;;;;4964741;28;20479;-73
2023/03/01 12:10:50;;;;;;;22.60;15.80;;;10.50;26.90;;;;;;4970631;28;20445;-73
2023/03/01 12:14:17;;;;;;;25.53;16.80;;;10.40;26.30;;;;;;4967842;28;20967;-73
2023/03/01 12:17:20;;;;;;;30.00;16.77;;;10.40;26.00;;;;;;4943559;28;20495;-73
2023/03/01 12:20:21;;;;;;;25.50;14.93;;;10.40;27.10;;;;;;4969535;28;20570;-73
2023/03/01 12:23:30;;;;;;;22.80;17.07;;;10.30;26.20;;;;;;4967938;28;20530;-71
2023/03/01 12:26:23;;;;;;;23.00;16.47;;;10.30;26.50;;;;;;4967252;28;20539;-71
2023/03/01 12:29:25;;;;;;;25.17;16.57;;;10.50;27.40;;;;;;4968048;28;20468;-74
2023/03/01 12:32:26;;;;;;;22.97;16.50;;;10.60;25.70;;;;;;4967838;28;20457;-74
2023/03/01 12:35:33;;;;;;;26.43;16.50;;;10.70;25.90;;;;;;4967653;28;20503;-74
2023/03/01 12:38:40;;;;;;;20.57;15.10;;;10.80;25.30;;;;;;4965069;28;20473;-75
2023/03/01 12:41:43;;;;;;;22.43;16.53;;;11.00;25.40;;;;;;4968156;28;20532;-72
2023/03/01 12:44:43;;;;;;;22.60;16.17;;;11.00;24.50;;;;;;4967458;28;20610;-73
2023/03/01 12:47:44;;;;;;;20.80;15.27;;;11.00;24.90;;;;;;4965488;28;20485;-73
2023/03/01 12:50:40;;;;;;;24.40;18.03;;;11.10;24.70;;;;;;4965408;28;20448;-71
2023/03/01 12:53:27;;;;;;;26.10;17.03;;;11.20;25.10;;;;;;4966157;28;20961;-73
2023/03/01 12:56:18;;;;;;;23.30;16.90;;;11.30;24.20;;;;;;4962745;28;20523;-71
2023/03/01 12:59:09;;;;;;;23.87;15.93;;;11.40;24.50;;;;;;4968648;28;20508;-71
2023/03/01 13:02:02;;;;;;;21.83;15.17;;;11.60;24.50;;;;;;4967523;28;20468;-72
2023/03/01 13:05:07;;;;;;;24.10;16.33;;;11.60;23.90;;;;;;4966211;28;20551;-72
2023/03/01 13:07:59;;;;;;;23.80;14.60;;;11.70;23.00;;;;;;4962887;28;20488;-73
2023/03/01 13:10:49;;;;;;;27.67;16.13;;;11.50;23.10;;;;;;4970761;28;20449;-73
2023/03/01 13:13:35;;;;;;;19.30;14.80;;;11.40;23.40;;;;;;4966153;28;20430;-71
2023/03/01 13:16:44;;;;;;;20.87;14.37;;;11.30;23.30;;;;;;4965147;28;20847;-73
2023/03/01 13:19:32;;;;;;;20.83;13.33;;;11.30;23.50;;;;;;4968337;28;21039;-73
2023/03/01 13:22:31;;;;;;;18.57;15.00;;;11.40;23.80;;;;;;4969671;28;20453;-73
2023/03/01 13:25:19;;;;;;;20.40;14.53;;;11.60;22.50;;;;;;4970701;28;20453;-71
2023/03/01 13:28:38;;;;;;;20.17;13.70;;;11.70;22.50;;;;;;4967764;28;20509;-73
2023/03/01 13:32:04;;;;;;;18.77;14.23;;;11.80;22.90;;;;;;4967251;28;20493;-73
2023/03/01 13:34:56;;;;;;;26.53;13.73;;;11.90;23.10;;;;;;4966281;28;20445;-73
2023/03/01 13:37:42;;;;;;;21.40;12.97;;;12.20;22.10;;;;;;4959963;28;20556;-73
2023/03/01 13:40:59;;;;;;;17.07;12.60;;;12.30;21.80;;;;;;4966285;28;20468;-73
2023/03/01 13:43:48;;;;;;;18.57;12.50;;;12.40;21.30;;;;;;4959859;28;20458;-72
2023/03/01 13:46:34;;;;;;;17.00;12.43;;;12.50;21.60;;;;;;4963100;28;20452;-71
2023/03/01 13:49:24;;;;;;;19.30;13.40;;;12.70;20.90;;;;;;4968869;28;20448;-73
2023/03/01 13:52:32;;;;;;;19.27;13.00;;;12.70;21.10;;;;;;4970934;28;20933;-73
2023/03/01 13:55:24;;;;;;;18.60;13.53;;;12.70;21.00;;;;;;4967797;28;20994;-71
2023/03/01 13:58:20;;;;;;;19.47;12.87;;;12.70;20.40;;;;;;4972790;28;20470;-72
2023/03/01 14:01:08;;;;;;;16.70;12.03;;;12.60;20.30;;;;;;4970878;28;20550;-71
2023/03/01 14:03:55;;;;;;;16.10;12.30;;;12.50;20.20;;;;;;4968519;28;20816;-71
2023/03/01 14:06:42;;;;;;;17.13;13.30;;;12.40;20.20;;;;;;4964973;28;20481;-73
2023/03/01 14:09:31;;;;;;;18.10;13.53;;;12.30;20.10;;;;;;4967276;28;20491;-71
2023/03/01 14:12:41;;;;;;;17.90;13.47;;;12.50;21.30;;;;;;4970914;28;20463;-71
2023/03/01 14:15:34;;;;;;;16.77;11.67;;;12.60;20.30;;;;;;4965650;28;20449;-71
2023/03/01 14:18:24;;;;;;;17.83;12.33;;;12.60;20.30;;;;;;4965364;28;20445;-75
2023/03/01 14:21:10;;;;;;;16.57;12.30;;;12.70;19.80;;;;;;4963682;28;20791;-73
2023/03/01 14:23:56;;;;;;;19.30;12.17;;;13.00;20.00;;;;;;4978418;28;20814;-71
2023/03/01 14:26:43;;;;;;;16.97;12.10;;;13.30;19.20;;;;;;4966340;28;20452;-71
2023/03/01 14:29:35;;;;;;;17.53;11.87;;;13.70;19.30;;;;;;4965101;28;20418;-72